TimeEST,TemperatureF,Dew PointF,Humidity,Sea Level PressureIn,VisibilityMPH,Wind Direction,Wind SpeedMPH,Gust SpeedMPH,PrecipitationIn,Events,Conditions,WindDirDegrees,DateUTC
12:53 AM,64.4,55.4,73,29.84,10.0,SW,15.0,23.0,N/A,,Mostly Cloudy,220,2012-12-04 05:53:00
1:43 AM,62.6,55.4,77,29.84,6.0,WSW,27.6,38.0,0.06,Rain,Rain,240,2012-12-04 06:43:00
1:53 AM,62.1,57.0,84,29.85,10.0,WSW,25.3,33.4,0.07,,Overcast,240,2012-12-04 06:53:00
2:17 AM,60.8,57.2,88,29.87,7.0,WSW,25.3,29.9,0.00,Rain,Light Rain,250,2012-12-04 07:17:00
2:33 AM,59.0,55.4,88,29.88,6.0,WSW,18.4,32.2,0.04,Rain,Light Rain,250,2012-12-04 07:33:00
2:41 AM,59.0,55.4,88,29.88,8.0,West,21.9,31.1,0.04,Rain,Light Rain,270,2012-12-04 07:41:00
2:49 AM,57.2,55.4,94,29.89,9.0,West,21.9,31.1,0.04,,Overcast,280,2012-12-04 07:49:00
2:53 AM,57.0,54.0,89,29.89,8.0,West,15.0,25.3,0.04,,Overcast,280,2012-12-04 07:53:00
3:18 AM,55.4,51.8,88,29.90,7.0,WNW,10.4,19.6,N/A,,Overcast,290,2012-12-04 08:18:00
3:31 AM,55.4,51.8,88,29.90,8.0,West,11.5,-,N/A,,Overcast,280,2012-12-04 08:31:00
3:40 AM,55.4,50.0,82,29.90,9.0,West,9.2,-,N/A,,Overcast,280,2012-12-04 08:40:00
3:53 AM,54.0,48.9,83,29.91,9.0,WNW,12.7,19.6,N/A,,Overcast,290,2012-12-04 08:53:00
4:02 AM,53.6,48.2,82,29.91,9.0,WNW,12.7,-,N/A,,Overcast,290,2012-12-04 09:02:00
4:53 AM,51.1,45.0,80,29.93,10.0,NW,11.5,-,N/A,,Scattered Clouds,310,2012-12-04 09:53:00
5:53 AM,50.0,43.0,77,29.96,10.0,WNW,10.4,-,N/A,,Overcast,300,2012-12-04 10:53:00
6:53 AM,50.0,41.0,71,29.98,10.0,WNW,6.9,-,N/A,,Mostly Cloudy,300,2012-12-04 11:53:00
7:53 AM,48.0,41.0,77,30.01,10.0,WSW,6.9,-,N/A,,Overcast,250,2012-12-04 12:53:00
8:53 AM,48.0,39.9,74,30.01,10.0,WSW,8.1,-,N/A,,Overcast,250,2012-12-04 13:53:00
9:53 AM,48.9,39.0,69,30.01,10.0,West,8.1,-,N/A,,Overcast,260,2012-12-04 14:53:00
10:53 AM,50.0,37.9,63,30.03,10.0,West,11.5,-,N/A,,Mostly Cloudy,270,2012-12-04 15:53:00
11:53 AM,50.0,36.0,59,30.02,10.0,West,10.4,-,N/A,,Mostly Cloudy,270,2012-12-04 16:53:00
12:53 PM,53.6,33.8,47,30.01,10.0,West,15.0,-,N/A,,Mostly Cloudy,280,2012-12-04 17:53:00
1:53 PM,51.1,32.0,48,30.01,10.0,West,13.8,-,N/A,,Mostly Cloudy,270,2012-12-04 18:53:00
2:53 PM,51.1,32.0,48,30.01,10.0,West,12.7,-,N/A,,Mostly Cloudy,260,2012-12-04 19:53:00
3:53 PM,50.0,32.0,50,30.03,10.0,West,13.8,20.7,N/A,,Mostly Cloudy,260,2012-12-04 20:53:00
4:53 PM,48.9,33.1,54,30.04,10.0,West,12.7,-,N/A,,Scattered Clouds,260,2012-12-04 21:53:00
5:53 PM,44.1,34.0,68,30.06,10.0,SW,6.9,-,N/A,,Partly Cloudy,230,2012-12-04 22:53:00
6:53 PM,42.1,35.1,76,30.08,10.0,WSW,8.1,-,N/A,,Clear,250,2012-12-04 23:53:00
7:53 PM,46.0,36.0,68,30.10,10.0,WNW,9.2,-,N/A,,Clear,290,2012-12-05 00:53:00
8:53 PM,45.0,30.0,56,30.12,10.0,WNW,16.1,25.3,N/A,,Clear,300,2012-12-05 01:53:00
9:53 PM,42.1,28.0,58,30.14,10.0,WNW,15.0,25.3,N/A,,Clear,300,2012-12-05 02:53:00
10:53 PM,39.0,26.1,60,30.17,10.0,WNW,13.8,-,N/A,,Clear,300,2012-12-05 03:53:00
11:53 PM,37.9,26.1,62,30.19,10.0,NW,12.7,23.0,N/A,,Clear,310,2012-12-05 04:53:00